createdAt,value
2023-01-18T00:01:38.318Z,8.70
2023-01-18T00:04:09.301Z,8.80
2023-01-18T00:06:40.169Z,8.70
2023-01-18T00:09:12.367Z,8.70
2023-01-18T00:11:43.193Z,8.70
2023-01-18T00:14:14.041Z,8.40
2023-01-18T00:16:44.881Z,8.40
2023-01-18T00:19:19.489Z,8.30
2023-01-18T00:21:54.293Z,8.10
2023-01-18T00:24:27.782Z,8.70
2023-01-18T00:26:58.642Z,9.20
2023-01-18T00:29:31.337Z,8.40
2023-01-18T00:32:02.242Z,8.40
2023-01-18T00:34:33.211Z,8.60
2023-01-18T00:37:04.087Z,8.70
2023-01-18T00:39:34.976Z,8.40
2023-01-18T00:42:24.219Z,8.60
2023-01-18T00:44:55.091Z,8.40
2023-01-18T00:47:27.555Z,8.40
2023-01-18T00:49:58.417Z,8.50
2023-01-18T00:52:29.295Z,8.50
2023-01-18T00:55:01.285Z,8.50
2023-01-18T00:57:32.259Z,8.40
2023-01-18T01:00:04.449Z,8.30
2023-01-18T01:02:39.929Z,8.70
2023-01-18T01:05:44.630Z,8.50
2023-01-18T01:08:21.103Z,8.60
2023-01-18T01:10:54.864Z,8.50
2023-01-18T01:13:44.255Z,8.40
2023-01-18T01:16:33.564Z,8.60
2023-01-18T01:19:23.110Z,8.70
2023-01-18T01:22:12.716Z,8.70
2023-01-18T01:25:01.934Z,8.60
2023-01-18T01:27:32.788Z,8.50
2023-01-18T01:30:04.480Z,8.60
2023-01-18T01:32:35.375Z,8.50
2023-01-18T01:35:06.512Z,8.40
2023-01-18T01:37:37.375Z,8.50
2023-01-18T01:40:09.314Z,8.50
2023-01-18T01:42:40.195Z,8.70
2023-01-18T01:45:11.209Z,8.60
2023-01-18T01:47:44.349Z,8.70
2023-01-18T01:50:35.976Z,9.10
2023-01-18T01:53:08.896Z,9.00
2023-01-18T01:55:40.661Z,9.00
2023-01-18T01:58:17.008Z,8.90
2023-01-18T02:00:48.243Z,8.50
2023-01-18T02:03:20.067Z,8.10
2023-01-18T02:06:01.672Z,8.10
2023-01-18T02:08:32.566Z,8.20
2023-01-18T02:11:03.394Z,7.60
2023-01-18T02:13:34.454Z,8.00
2023-01-18T02:16:29.402Z,8.10
2023-01-18T02:19:17.636Z,8.40
2023-01-18T02:21:57.025Z,8.30
2023-01-18T02:24:59.044Z,8.30
2023-01-18T02:28:10.291Z,8.10
2023-01-18T02:30:56.930Z,7.70
2023-01-18T02:33:47.061Z,7.30
2023-01-18T02:36:43.979Z,8.00
2023-01-18T02:39:38.231Z,8.30
2023-01-18T02:42:39.221Z,7.90
2023-01-18T02:46:02.639Z,7.80
2023-01-18T02:48:40.631Z,8.00
2023-01-18T02:51:12.561Z,8.00
2023-01-18T02:53:46.342Z,7.60
2023-01-18T02:56:38.785Z,8.00
2023-01-18T02:59:21.165Z,8.00
2023-01-18T03:02:06.352Z,7.90
2023-01-18T03:04:54.220Z,8.50
2023-01-18T03:08:13.776Z,8.50
2023-01-18T03:11:35.592Z,8.60
2023-01-18T03:15:01.656Z,8.30
2023-01-18T03:17:40.517Z,8.20
2023-01-18T03:20:15.139Z,8.40
2023-01-18T03:23:12.703Z,7.70
2023-01-18T03:25:48.220Z,7.30
2023-01-18T03:29:01.817Z,7.70
2023-01-18T03:32:08.743Z,7.50
2023-01-18T03:34:58.626Z,7.90
2023-01-18T03:37:38.130Z,7.70
2023-01-18T03:40:19.836Z,7.70
2023-01-18T03:43:00.522Z,7.70
2023-01-18T03:45:42.222Z,7.50
2023-01-18T03:48:13.584Z,8.00
2023-01-18T03:50:51.899Z,7.90
2023-01-18T03:53:34.973Z,7.50
2023-01-18T03:56:22.063Z,7.60
2023-01-18T03:58:57.355Z,7.60
2023-01-18T04:01:28.634Z,7.70
2023-01-18T04:03:59.605Z,7.60
2023-01-18T04:06:33.355Z,7.90
2023-01-18T04:09:04.449Z,7.50
2023-01-18T04:11:35.418Z,7.50
2023-01-18T04:14:06.306Z,7.80
2023-01-18T04:16:39.456Z,7.60
2023-01-18T04:19:10.871Z,7.70
2023-01-18T04:21:41.693Z,7.50
2023-01-18T04:24:13.003Z,7.50
2023-01-18T04:26:43.838Z,7.70
2023-01-18T04:29:14.699Z,7.70
2023-01-18T04:31:45.625Z,7.70
2023-01-18T04:34:16.554Z,7.30
2023-01-18T04:36:47.501Z,7.30
2023-01-18T04:39:18.935Z,7.60
2023-01-18T04:41:50.008Z,7.60
2023-01-18T04:44:21.902Z,7.80
2023-01-18T04:46:52.803Z,7.60
2023-01-18T04:49:24.174Z,7.50
2023-01-18T04:51:55.055Z,7.60
2023-01-18T04:54:26.232Z,7.50
2023-01-18T04:56:57.197Z,7.70
2023-01-18T04:59:28.625Z,7.70
2023-01-18T05:01:59.524Z,7.50
2023-01-18T05:04:30.711Z,7.70
2023-01-18T05:07:02.315Z,7.50
2023-01-18T05:09:34.182Z,7.60
2023-01-18T05:12:05.446Z,7.60
2023-01-18T05:14:36.289Z,7.70
2023-01-18T05:17:07.405Z,7.90
2023-01-18T05:19:39.191Z,7.20
2023-01-18T05:22:10.026Z,6.90
2023-01-18T05:24:40.880Z,6.80
2023-01-18T05:27:13.489Z,7.00
2023-01-18T05:29:45.947Z,6.70
2023-01-18T05:32:17.449Z,7.30
2023-01-18T05:34:49.202Z,7.60
2023-01-18T05:37:20.100Z,7.60
2023-01-18T05:39:51.046Z,7.10
2023-01-18T05:42:21.875Z,7.00
2023-01-18T05:44:52.725Z,7.00
2023-01-18T05:47:23.618Z,7.20
2023-01-18T05:49:54.500Z,7.30
2023-01-18T05:52:25.410Z,7.60
2023-01-18T05:54:56.228Z,7.10
2023-01-18T05:57:27.128Z,6.90
2023-01-18T05:59:57.985Z,7.10
2023-01-18T06:02:28.837Z,7.50
2023-01-18T06:04:59.675Z,7.20
2023-01-18T06:07:30.517Z,7.30
2023-01-18T06:10:01.412Z,7.50
2023-01-18T06:12:32.267Z,7.60
2023-01-18T06:15:03.327Z,7.20
2023-01-18T06:17:34.489Z,7.10
2023-01-18T06:20:06.956Z,7.50
2023-01-18T06:22:38.041Z,7.30
2023-01-18T06:25:10.277Z,7.00
2023-01-18T06:27:41.650Z,7.50
2023-01-18T06:30:12.923Z,7.50
2023-01-18T06:32:45.061Z,7.80
2023-01-18T06:35:16.132Z,7.30
2023-01-18T06:37:47.119Z,7.50
2023-01-18T06:40:18.174Z,7.00
2023-01-18T06:42:49.149Z,7.10
2023-01-18T06:45:22.527Z,7.10
2023-01-18T06:47:53.631Z,6.80
2023-01-18T06:50:24.651Z,7.00
2023-01-18T06:52:58.940Z,6.50
2023-01-18T06:55:30.003Z,6.80
2023-01-18T06:58:02.599Z,7.00
2023-01-18T07:00:34.183Z,6.80
2023-01-18T07:03:05.247Z,7.00
2023-01-18T07:05:36.271Z,7.20
2023-01-18T07:08:07.115Z,7.00
2023-01-18T07:10:38.035Z,7.10
2023-01-18T07:13:08.883Z,7.40
2023-01-18T07:15:39.785Z,7.30
2023-01-18T07:18:10.724Z,7.20
2023-01-18T07:20:41.655Z,7.30
2023-01-18T07:23:12.483Z,7.30
2023-01-18T07:25:43.323Z,7.00
2023-01-18T07:28:14.139Z,6.90
2023-01-18T07:30:45.070Z,7.00
2023-01-18T07:33:15.922Z,7.20
2023-01-18T07:35:46.982Z,6.70
2023-01-18T07:38:18.646Z,6.10
2023-01-18T07:40:50.167Z,7.00
2023-01-18T07:43:21.035Z,6.60
2023-01-18T07:45:58.102Z,6.20
2023-01-18T07:48:29.564Z,6.70
2023-01-18T07:51:06.560Z,6.40
2023-01-18T07:53:38.938Z,6.70
2023-01-18T07:56:17.417Z,6.10
2023-01-18T07:58:48.800Z,6.50
2023-01-18T08:01:22.728Z,6.00
2023-01-18T08:03:54.747Z,6.60
2023-01-18T08:06:27.186Z,6.40
2023-01-18T08:08:58.148Z,6.40
2023-01-18T08:11:29.031Z,6.30
2023-01-18T08:13:59.916Z,6.30
2023-01-18T08:16:30.761Z,6.50
2023-01-18T08:19:01.617Z,6.70
2023-01-18T08:21:33.604Z,6.40
2023-01-18T08:24:04.625Z,7.00
2023-01-18T08:26:35.594Z,6.60
2023-01-18T08:29:06.545Z,6.70
2023-01-18T08:31:37.471Z,6.70
2023-01-18T08:34:08.324Z,6.30
2023-01-18T08:36:40.598Z,6.40
2023-01-18T08:39:13.561Z,6.50
2023-01-18T08:41:46.583Z,6.00
2023-01-18T08:44:17.484Z,6.60
2023-01-18T08:46:48.449Z,6.90
2023-01-18T08:49:19.314Z,7.00
2023-01-18T08:51:53.596Z,7.00
2023-01-18T08:54:24.874Z,6.70
2023-01-18T08:56:55.719Z,7.00
2023-01-18T08:59:26.642Z,7.10
2023-01-18T09:01:58.675Z,7.30
2023-01-18T09:04:30.134Z,6.90
2023-01-18T09:07:00.967Z,6.50
2023-01-18T09:09:31.845Z,6.80
2023-01-18T09:12:02.695Z,6.50
2023-01-18T09:14:33.711Z,7.30
2023-01-18T09:17:04.791Z,7.30
2023-01-18T09:19:35.720Z,6.60
2023-01-18T09:22:06.787Z,6.80
2023-01-18T09:24:37.743Z,7.30
2023-01-18T09:27:08.601Z,6.80
2023-01-18T09:29:40.335Z,6.80
2023-01-18T09:32:11.264Z,6.80
2023-01-18T09:34:42.203Z,6.70
2023-01-18T09:37:13.211Z,6.70
2023-01-18T09:39:51.934Z,6.90
2023-01-18T09:42:30.531Z,7.00
2023-01-18T09:45:02.463Z,6.30
2023-01-18T09:47:46.485Z,6.20
2023-01-18T09:50:21.171Z,5.80
2023-01-18T09:53:38.017Z,6.50
2023-01-18T09:56:16.956Z,6.40
2023-01-18T09:59:24.856Z,6.70
2023-01-18T10:01:56.230Z,6.80
2023-01-18T10:04:36.247Z,6.90
2023-01-18T10:07:15.011Z,6.40
2023-01-18T10:09:52.903Z,6.80
2023-01-18T10:12:32.360Z,6.80
2023-01-18T10:15:36.824Z,6.80
2023-01-18T10:18:09.612Z,7.50
2023-01-18T10:21:01.404Z,7.10
2023-01-18T10:24:06.964Z,7.20
2023-01-18T10:26:39.717Z,6.50
2023-01-18T10:29:41.565Z,6.90
2023-01-18T10:32:19.166Z,6.20
2023-01-18T10:34:51.965Z,6.10
2023-01-18T10:37:45.323Z,6.20
2023-01-18T10:40:16.526Z,6.60
2023-01-18T10:42:51.786Z,6.60
2023-01-18T10:45:29.458Z,6.60
2023-01-18T10:48:25.870Z,7.10
2023-01-18T10:51:07.106Z,6.40
2023-01-18T10:53:39.907Z,7.10
2023-01-18T10:56:10.894Z,7.10
2023-01-18T10:59:02.922Z,7.20
2023-01-18T11:01:37.283Z,6.90
2023-01-18T11:04:29.595Z,6.70
2023-01-18T11:07:03.320Z,6.50
2023-01-18T11:09:46.875Z,6.70
2023-01-18T11:12:33.762Z,7.00
2023-01-18T11:15:13.764Z,6.80
2023-01-18T11:18:01.907Z,6.00
2023-01-18T11:20:50.785Z,6.60
2023-01-18T11:23:37.633Z,7.10
2023-01-18T11:26:19.159Z,6.90
2023-01-18T11:29:00.159Z,7.20
2023-01-18T11:31:45.541Z,6.70
2023-01-18T11:34:27.987Z,6.90
2023-01-18T11:37:00.888Z,7.20
2023-01-18T11:39:34.267Z,7.30
2023-01-18T11:42:35.664Z,6.60
2023-01-18T11:45:27.080Z,6.80
2023-01-18T11:48:06.888Z,7.00
2023-01-18T11:51:07.289Z,6.50
2023-01-18T11:54:01.474Z,6.50
2023-01-18T11:56:40.781Z,7.00
2023-01-18T11:59:28.263Z,6.90
2023-01-18T12:02:17.974Z,7.00
2023-01-18T12:05:45.942Z,7.40
2023-01-18T12:09:03.624Z,6.90
2023-01-18T12:12:22.914Z,6.90
2023-01-18T12:15:54.429Z,7.00
2023-01-18T12:18:42.936Z,6.10
2023-01-18T12:21:27.619Z,7.00
2023-01-18T12:24:11.390Z,7.40
2023-01-18T12:26:52.699Z,7.70
2023-01-18T12:29:44.915Z,7.00
2023-01-18T12:33:02.215Z,7.30
2023-01-18T12:35:53.462Z,7.40
2023-01-18T12:38:29.862Z,7.00
2023-01-18T12:41:26.351Z,7.00
2023-01-18T12:44:29.964Z,6.90
2023-01-18T12:48:02.840Z,6.20
2023-01-18T12:50:39.685Z,6.70
2023-01-18T12:53:41.358Z,7.10
2023-01-18T12:56:30.054Z,6.90
2023-01-18T12:59:11.478Z,7.60
2023-01-18T13:01:55.902Z,7.60
2023-01-18T13:04:49.880Z,7.60
2023-01-18T13:07:29.911Z,7.50
2023-01-18T13:10:01.621Z,8.10
2023-01-18T13:12:32.948Z,8.00
2023-01-18T13:15:42.999Z,7.40
2023-01-18T13:18:43.469Z,8.20
2023-01-18T13:21:40.807Z,8.70
2023-01-18T13:24:57.968Z,7.90
2023-01-18T13:27:31.276Z,8.20
2023-01-18T13:30:19.375Z,8.30
2023-01-18T13:32:50.730Z,8.40
2023-01-18T13:35:36.156Z,8.40
2023-01-18T13:38:12.666Z,8.20
2023-01-18T13:40:56.274Z,8.10
2023-01-18T13:43:53.877Z,8.50
2023-01-18T13:46:26.243Z,8.30
2023-01-18T13:49:36.371Z,7.70
2023-01-18T13:52:35.695Z,8.00
2023-01-18T13:55:31.137Z,7.50
2023-01-18T13:58:02.458Z,7.30
2023-01-18T14:00:35.209Z,7.30
2023-01-18T14:03:22.460Z,7.50
2023-01-18T14:05:57.102Z,8.20
2023-01-18T14:08:32.590Z,7.70
2023-01-18T14:11:08.402Z,7.50
2023-01-18T14:13:45.343Z,7.80
2023-01-18T14:16:29.263Z,7.80
2023-01-18T14:19:22.157Z,7.90
2023-01-18T14:22:26.910Z,7.70
2023-01-18T14:25:48.110Z,8.10
2023-01-18T14:28:26.561Z,8.00
2023-01-18T14:30:59.629Z,8.30
2023-01-18T14:33:36.561Z,8.20
2023-01-18T14:36:17.048Z,7.90
2023-01-18T14:38:48.154Z,7.70
2023-01-18T14:41:19.378Z,7.80
2023-01-18T14:43:51.729Z,8.10
2023-01-18T14:46:26.656Z,8.50
2023-01-18T14:49:01.716Z,8.70
2023-01-18T14:51:32.781Z,9.10
2023-01-18T14:54:05.982Z,9.10
2023-01-18T14:56:42.979Z,9.20
2023-01-18T14:59:24.734Z,9.20
2023-01-18T15:02:00.959Z,8.90
2023-01-18T15:04:35.387Z,8.80
2023-01-18T15:07:10.535Z,8.90
2023-01-18T15:09:44.264Z,9.10
2023-01-18T15:12:29.006Z,9.10
2023-01-18T15:15:27.808Z,8.50
2023-01-18T15:18:12.461Z,8.20
2023-01-18T15:21:00.196Z,8.10
2023-01-18T15:23:36.460Z,8.70
2023-01-18T15:26:07.498Z,8.00
2023-01-18T15:28:39.476Z,8.80
2023-01-18T15:31:16.206Z,8.40
2023-01-18T15:33:47.481Z,8.80
2023-01-18T15:36:18.452Z,8.60
2023-01-18T15:38:49.346Z,8.80
2023-01-18T15:41:21.464Z,8.50
2023-01-18T15:43:52.984Z,8.50
2023-01-18T15:46:25.945Z,9.00
2023-01-18T15:48:58.368Z,8.70
2023-01-18T15:51:47.735Z,8.70
2023-01-18T15:54:24.490Z,8.60
2023-01-18T15:57:13.009Z,8.90
2023-01-18T15:59:44.145Z,9.00
2023-01-18T16:02:21.936Z,9.10
2023-01-18T16:05:20.929Z,8.90
2023-01-18T16:08:16.180Z,9.00
2023-01-18T16:10:57.664Z,9.30
2023-01-18T16:13:39.500Z,9.00
2023-01-18T16:16:19.676Z,9.10
2023-01-18T16:19:29.056Z,9.20
2023-01-18T16:22:04.543Z,8.80
2023-01-18T16:24:51.339Z,8.20
2023-01-18T16:27:25.860Z,8.40
2023-01-18T16:30:07.633Z,8.70
2023-01-18T16:32:38.971Z,9.10
2023-01-18T16:35:14.695Z,8.10
2023-01-18T16:37:46.913Z,8.50
2023-01-18T16:40:21.919Z,8.80
2023-01-18T16:43:22.582Z,8.80
2023-01-18T16:45:56.334Z,8.80
2023-01-18T16:48:29.435Z,9.00
2023-01-18T16:51:01.391Z,8.80
2023-01-18T16:53:32.941Z,9.00
2023-01-18T16:56:03.870Z,9.10
2023-01-18T16:58:35.309Z,9.20
2023-01-18T17:01:11.202Z,9.10
2023-01-18T17:03:45.223Z,9.30
2023-01-18T17:06:23.624Z,9.00
2023-01-18T17:08:54.564Z,9.10
2023-01-18T17:11:25.407Z,9.00
2023-01-18T17:13:56.265Z,9.10
2023-01-18T17:16:27.137Z,8.80
2023-01-18T17:18:58.012Z,8.70
2023-01-18T17:21:28.877Z,8.70
2023-01-18T17:23:59.758Z,9.00
2023-01-18T17:26:30.711Z,8.80
2023-01-18T17:29:02.576Z,8.80
2023-01-18T17:31:35.374Z,8.80
2023-01-18T17:34:10.247Z,8.80
2023-01-18T17:36:41.093Z,8.90
2023-01-18T17:39:12.935Z,9.00
2023-01-18T17:41:43.851Z,8.90
2023-01-18T17:44:14.723Z,8.70
2023-01-18T17:46:45.616Z,9.00
2023-01-18T17:49:16.504Z,8.60
2023-01-18T17:51:47.371Z,8.40
2023-01-18T17:54:20.966Z,8.80
2023-01-18T17:56:53.181Z,8.50
2023-01-18T17:59:24.471Z,8.30
2023-01-18T18:01:55.394Z,8.20
2023-01-18T18:04:26.317Z,8.20
2023-01-18T18:06:58.532Z,8.20
2023-01-18T18:09:29.670Z,9.50
2023-01-18T18:12:00.544Z,11.10
2023-01-18T18:14:34.283Z,10.90
2023-01-18T18:17:06.612Z,10.00
2023-01-18T18:19:37.496Z,9.70
2023-01-18T18:22:08.397Z,9.30
2023-01-18T18:24:39.616Z,9.00
2023-01-18T18:27:10.566Z,8.70
2023-01-18T18:29:41.611Z,8.70
2023-01-18T18:32:14.069Z,8.70
2023-01-18T18:34:45.051Z,8.40
2023-01-18T18:37:16.113Z,8.40
2023-01-18T18:39:47.022Z,8.70
2023-01-18T18:42:17.920Z,8.60
2023-01-18T18:44:48.787Z,8.40
2023-01-18T18:47:19.624Z,8.40
2023-01-18T18:49:50.829Z,8.50
2023-01-18T18:52:21.756Z,8.60
2023-01-18T18:54:52.688Z,8.80
2023-01-18T18:57:23.524Z,8.70
2023-01-18T18:59:54.435Z,8.60
2023-01-18T19:02:25.487Z,8.80
2023-01-18T19:04:56.365Z,8.60
2023-01-18T19:07:27.906Z,8.60
2023-01-18T19:09:58.784Z,8.70
2023-01-18T19:12:29.964Z,8.40
2023-01-18T19:15:01.076Z,8.60
2023-01-18T19:17:32.355Z,8.50
2023-01-18T19:20:04.610Z,7.50
2023-01-18T19:22:38.291Z,8.40
2023-01-18T19:25:09.633Z,8.60
2023-01-18T19:27:40.587Z,8.30
2023-01-18T19:30:18.667Z,8.70
2023-01-18T19:32:51.138Z,8.60
2023-01-18T19:35:22.108Z,8.50
2023-01-18T19:37:53.661Z,8.60
2023-01-18T19:40:24.761Z,8.60
2023-01-18T19:42:56.000Z,8.50
2023-01-18T19:45:29.115Z,8.30
2023-01-18T19:48:01.776Z,8.30
2023-01-18T19:50:32.739Z,8.50
2023-01-18T19:53:03.770Z,8.40
2023-01-18T19:55:36.477Z,8.60
2023-01-18T19:58:07.468Z,8.60
2023-01-18T20:00:41.232Z,8.60
2023-01-18T20:03:13.699Z,8.30
2023-01-18T20:05:45.403Z,8.30
2023-01-18T20:08:16.323Z,8.40
2023-01-18T20:10:47.952Z,8.40
2023-01-18T20:13:19.138Z,8.50
2023-01-18T20:15:54.026Z,8.20
2023-01-18T20:18:24.929Z,7.90
2023-01-18T20:20:57.123Z,7.70
2023-01-18T20:23:28.706Z,7.60
2023-01-18T20:26:00.523Z,7.80
2023-01-18T20:28:34.431Z,7.80
2023-01-18T20:31:06.283Z,8.00
2023-01-18T20:33:38.376Z,8.10
2023-01-18T20:36:09.533Z,8.30
2023-01-18T20:38:41.903Z,8.00
2023-01-18T20:41:12.890Z,8.20
2023-01-18T20:43:43.910Z,8.20
2023-01-18T20:46:15.017Z,8.10
2023-01-18T20:48:45.902Z,8.30
2023-01-18T20:51:17.950Z,8.70
2023-01-18T20:53:48.914Z,8.30
2023-01-18T20:56:34.824Z,8.00
2023-01-18T20:59:05.766Z,8.30
2023-01-18T21:01:36.778Z,8.20
2023-01-18T21:04:08.058Z,8.30
2023-01-18T21:06:38.901Z,8.30
2023-01-18T21:09:09.778Z,8.20
2023-01-18T21:11:40.687Z,8.30
2023-01-18T21:14:12.754Z,8.10
2023-01-18T21:16:44.202Z,8.30
2023-01-18T21:19:15.138Z,8.20
2023-01-18T21:21:46.035Z,8.10
2023-01-18T21:24:17.189Z,8.00
2023-01-18T21:26:48.042Z,7.40
2023-01-18T21:29:19.019Z,7.30
2023-01-18T21:31:50.028Z,7.30
2023-01-18T21:34:21.218Z,7.40
2023-01-18T21:36:52.484Z,7.90
2023-01-18T21:39:28.301Z,7.70
2023-01-18T21:42:17.884Z,7.60
2023-01-18T21:45:07.236Z,7.10
2023-01-18T21:47:38.069Z,7.20
2023-01-18T21:50:28.384Z,7.00
2023-01-18T21:53:17.968Z,7.50
2023-01-18T21:55:48.882Z,7.20
2023-01-18T21:58:38.075Z,7.20
2023-01-18T22:01:18.188Z,7.40
2023-01-18T22:04:10.604Z,7.30
2023-01-18T22:06:41.511Z,7.50
2023-01-18T22:09:12.651Z,7.20
2023-01-18T22:11:44.102Z,7.50
2023-01-18T22:14:15.366Z,7.50
2023-01-18T22:16:46.255Z,7.50
2023-01-18T22:19:19.097Z,7.40
2023-01-18T22:21:53.021Z,7.50
2023-01-18T22:24:23.887Z,7.50
2023-01-18T22:26:55.027Z,7.00
2023-01-18T22:29:25.884Z,7.20
2023-01-18T22:31:57.142Z,7.00
2023-01-18T22:34:28.250Z,7.10
2023-01-18T22:36:59.228Z,7.00
2023-01-18T22:39:30.149Z,7.60
2023-01-18T22:42:01.101Z,7.20
2023-01-18T22:44:32.869Z,7.30
2023-01-18T22:47:03.824Z,7.10
2023-01-18T22:49:34.699Z,7.10
2023-01-18T22:52:05.644Z,7.30
2023-01-18T22:54:36.507Z,6.80
2023-01-18T22:57:07.377Z,6.30
2023-01-18T22:59:40.961Z,6.90
2023-01-18T23:02:11.781Z,7.00
2023-01-18T23:04:42.652Z,7.20
2023-01-18T23:07:14.212Z,7.00
2023-01-18T23:09:45.116Z,6.80
2023-01-18T23:12:16.053Z,6.90
2023-01-18T23:15:05.287Z,6.70
2023-01-18T23:17:39.032Z,6.70
2023-01-18T23:20:16.129Z,6.10
2023-01-18T23:22:46.992Z,6.30
2023-01-18T23:25:18.255Z,6.40
2023-01-18T23:27:49.173Z,6.40
2023-01-18T23:30:20.128Z,6.70
2023-01-18T23:32:51.005Z,6.50
2023-01-18T23:35:22.104Z,6.40
2023-01-18T23:37:54.343Z,6.30
2023-01-18T23:40:43.732Z,6.40
2023-01-18T23:43:32.973Z,6.30
2023-01-18T23:46:22.499Z,6.50
2023-01-18T23:49:11.778Z,5.80
2023-01-18T23:52:01.326Z,6.40
2023-01-18T23:54:32.182Z,6.00
2023-01-18T23:57:03.589Z,6.60
2023-01-18T23:59:34.851Z,6.90
